createdAt,value
2023-02-26T00:02:25.475Z,60218.47
2023-02-26T00:05:26.976Z,60218.47
2023-02-26T00:08:31.421Z,60218.47
2023-02-26T00:11:33.523Z,60218.47
2023-02-26T00:14:35.194Z,60218.47
2023-02-26T00:17:42.655Z,60218.47
2023-02-26T00:20:44.375Z,60218.47
2023-02-26T00:23:45.966Z,60218.47
2023-02-26T00:26:47.459Z,60218.47
2023-02-26T00:29:49.185Z,60218.47
2023-02-26T00:32:50.886Z,60218.47
2023-02-26T00:36:04.331Z,60218.47
2023-02-26T00:39:24.345Z,60218.47
2023-02-26T00:42:26.063Z,60218.47
2023-02-26T00:45:34.980Z,60218.47
2023-02-26T00:49:18.018Z,60218.47
2023-02-26T00:52:32.088Z,60218.47
2023-02-26T00:55:33.533Z,60218.47
2023-02-26T00:58:34.978Z,60218.47
2023-02-26T01:01:37.703Z,60218.47
2023-02-26T01:04:39.715Z,60218.47
2023-02-26T01:07:54.170Z,60218.47
2023-02-26T01:10:55.796Z,60218.47
2023-02-26T01:13:58.190Z,60218.47
2023-02-26T01:17:44.348Z,60218.47
2023-02-26T01:21:03.334Z,60218.47
2023-02-26T01:24:08.727Z,60218.47
2023-02-26T01:27:10.308Z,60218.47
2023-02-26T01:30:12.189Z,60218.47
2023-02-26T01:33:19.779Z,60218.47
2023-02-26T01:36:24.244Z,60218.47
2023-02-26T01:39:37.181Z,60218.47
2023-02-26T01:42:42.541Z,60218.47
2023-02-26T01:46:14.419Z,60218.47
2023-02-26T01:49:17.969Z,60218.47
2023-02-26T01:52:34.496Z,60218.47
2023-02-26T01:55:36.422Z,60218.47
2023-02-26T01:58:38.426Z,60218.47
2023-02-26T02:01:40.240Z,60218.47
2023-02-26T02:04:44.005Z,60218.47
2023-02-26T02:07:45.471Z,60218.47
2023-02-26T02:10:48.715Z,60218.47
2023-02-26T02:14:06.377Z,60218.47
2023-02-26T02:17:13.741Z,60218.47
2023-02-26T02:20:27.014Z,60218.47
2023-02-26T02:23:41.594Z,60218.47
2023-02-26T02:27:04.898Z,60218.47
2023-02-26T02:30:30.320Z,60218.47
2023-02-26T02:33:56.906Z,60218.47
2023-02-26T02:37:14.484Z,60218.47
2023-02-26T02:40:22.236Z,60218.47
2023-02-26T02:43:28.308Z,60218.47
2023-02-26T02:46:38.148Z,60218.47
2023-02-26T02:49:47.417Z,60218.47
2023-02-26T02:52:52.172Z,60218.47
2023-02-26T02:56:07.075Z,60218.47
2023-02-26T02:59:35.223Z,60218.47
2023-02-26T03:02:55.267Z,60218.47
2023-02-26T03:05:58.555Z,60218.47
2023-02-26T03:09:05.652Z,60218.47
2023-02-26T03:12:07.241Z,60218.47
2023-02-26T03:15:09.760Z,60218.47
2023-02-26T03:18:50.547Z,60218.47
2023-02-26T03:22:28.792Z,60218.47
2023-02-26T03:25:54.330Z,60218.47
2023-02-26T03:29:23.097Z,60218.47
2023-02-26T03:32:28.958Z,60218.47
2023-02-26T03:39:16.614Z,60218.47
2023-02-26T03:42:32.405Z,60218.47
2023-02-26T03:45:40.046Z,60218.47
2023-02-26T03:48:43.389Z,60218.47
2023-02-26T03:51:46.641Z,60218.47
2023-02-26T03:55:30.915Z,60218.47
2023-02-26T03:58:52.443Z,60218.47
2023-02-26T04:02:20.612Z,60218.47
2023-02-26T04:05:32.465Z,60218.47
2023-02-26T04:08:35.116Z,60218.47
2023-02-26T04:11:38.313Z,60218.47
2023-02-26T04:14:39.765Z,60218.47
2023-02-26T04:17:41.249Z,60218.47
2023-02-26T04:20:43.656Z,60218.47
2023-02-26T04:23:45.541Z,60218.47
2023-02-26T04:26:47.202Z,60218.47
2023-02-26T04:29:49.256Z,60218.47
2023-02-26T04:32:50.776Z,60218.47
2023-02-26T04:35:52.823Z,60218.47
2023-02-26T04:38:54.561Z,60218.47
2023-02-26T04:41:56.424Z,60218.47
2023-02-26T04:45:04.113Z,60218.47
2023-02-26T04:48:07.317Z,60218.47
2023-02-26T04:51:08.990Z,60218.47
2023-02-26T04:54:10.406Z,60218.47
2023-02-26T04:57:11.992Z,60218.47
2023-02-26T05:00:14.288Z,60218.47
2023-02-26T05:03:17.174Z,60218.47
2023-02-26T05:06:18.677Z,60218.47
2023-02-26T05:09:20.112Z,60218.47
2023-02-26T05:12:21.805Z,60218.47
2023-02-26T05:15:23.309Z,60218.47
2023-02-26T05:18:24.844Z,60218.47
2023-02-26T05:21:26.480Z,60218.47
2023-02-26T05:24:31.742Z,60218.47
2023-02-26T05:27:33.948Z,60218.47
2023-02-26T05:30:35.405Z,60218.47
2023-02-26T05:33:36.913Z,60218.47
2023-02-26T05:36:38.400Z,60218.47
2023-02-26T05:39:40.011Z,60218.47
2023-02-26T05:42:41.470Z,60218.47
2023-02-26T05:45:42.869Z,60218.47
2023-02-26T05:48:45.853Z,60218.47
2023-02-26T05:51:47.393Z,60218.47
2023-02-26T05:54:48.769Z,60218.47
2023-02-26T05:57:50.205Z,60218.47
2023-02-26T06:00:51.627Z,60218.47
2023-02-26T06:03:53.054Z,60218.47
2023-02-26T06:06:54.441Z,60218.47
2023-02-26T06:09:55.896Z,60218.47
2023-02-26T06:13:02.198Z,60218.47
2023-02-26T06:16:03.910Z,60218.47
2023-02-26T06:19:05.323Z,60218.47
2023-02-26T06:22:06.723Z,60218.47
2023-02-26T06:25:08.844Z,60218.47
2023-02-26T06:28:10.263Z,60218.47
2023-02-26T06:31:11.786Z,60218.47
2023-02-26T06:34:13.463Z,60218.47
2023-02-26T06:37:15.335Z,60218.47
2023-02-26T06:40:16.934Z,60218.47
2023-02-26T06:43:18.386Z,60218.47
2023-02-26T06:46:20.126Z,60218.47
2023-02-26T06:49:21.579Z,60218.47
2023-02-26T06:52:23.111Z,60218.47
2023-02-26T06:55:24.545Z,60218.47
2023-02-26T06:58:25.992Z,60218.47
2023-02-26T07:01:29.769Z,60218.47
2023-02-26T07:04:32.694Z,60218.47
2023-02-26T07:07:34.103Z,60218.47
2023-02-26T07:10:37.024Z,60218.47
2023-02-26T07:13:38.459Z,60218.47
2023-02-26T07:16:40.081Z,60218.47
2023-02-26T07:19:41.477Z,60218.47
2023-02-26T07:22:42.846Z,60218.47
2023-02-26T07:25:44.273Z,60218.47
2023-02-26T07:28:45.698Z,60218.47
2023-02-26T07:31:47.302Z,60218.47
2023-02-26T07:34:48.782Z,60218.47
2023-02-26T07:37:50.194Z,60218.47
2023-02-26T07:40:54.938Z,60218.47
2023-02-26T07:43:56.318Z,60218.47
2023-02-26T07:47:02.463Z,60218.47
2023-02-26T07:50:04.526Z,60218.47
2023-02-26T07:53:05.984Z,60218.47
2023-02-26T07:56:07.437Z,60218.47
2023-02-26T07:59:09.783Z,60218.47
2023-02-26T08:02:12.989Z,60218.47
2023-02-26T08:05:14.513Z,60218.47
2023-02-26T08:08:15.943Z,60218.47
2023-02-26T08:11:17.362Z,60218.47
2023-02-26T08:14:18.874Z,60218.47
2023-02-26T08:17:20.277Z,60218.47
2023-02-26T08:20:21.702Z,60218.47
2023-02-26T08:23:23.118Z,60218.47
2023-02-26T08:26:24.973Z,60218.47
2023-02-26T08:29:26.680Z,60218.47
2023-02-26T08:32:30.702Z,60218.47
2023-02-26T08:35:32.158Z,60218.47
2023-02-26T08:38:34.026Z,60218.47
2023-02-26T08:41:35.628Z,60218.47
2023-02-26T08:44:37.185Z,60218.47
2023-02-26T08:47:42.335Z,60218.47
2023-02-26T08:50:50.561Z,60218.47
2023-02-26T08:53:52.100Z,60218.47
2023-02-26T08:56:53.885Z,60218.47
2023-02-26T08:59:55.326Z,60218.47
2023-02-26T09:02:57.004Z,60218.47
2023-02-26T09:05:58.505Z,60218.47
2023-02-26T09:08:59.906Z,60218.47
2023-02-26T09:12:01.396Z,60218.47
2023-02-26T09:15:04.873Z,60218.47
2023-02-26T09:18:06.872Z,60218.47
2023-02-26T09:21:08.301Z,60218.47
2023-02-26T09:24:09.795Z,60218.47
2023-02-26T09:27:11.558Z,60218.47
2023-02-26T09:30:13.612Z,60218.47
2023-02-26T09:33:15.213Z,60218.47
2023-02-26T09:36:16.684Z,60218.47
2023-02-26T09:39:18.191Z,60218.47
2023-02-26T09:42:54.448Z,60218.47
2023-02-26T09:45:59.833Z,60218.47
2023-02-26T09:49:09.912Z,60218.47
2023-02-26T09:52:32.345Z,60218.47
2023-02-26T09:55:40.872Z,60218.47
2023-02-26T09:58:43.988Z,60218.47
2023-02-26T10:01:45.393Z,60218.47
2023-02-26T10:05:04.790Z,60218.47
2023-02-26T10:08:17.927Z,60218.47
2023-02-26T10:11:22.192Z,60218.47
2023-02-26T10:14:45.772Z,60218.47
2023-02-26T10:18:15.791Z,60218.47
2023-02-26T10:21:25.303Z,60218.47
2023-02-26T10:24:37.545Z,60218.47
2023-02-26T10:28:00.051Z,60218.47
2023-02-26T10:31:26.957Z,60218.47
2023-02-26T10:34:47.284Z,60218.47
2023-02-26T10:37:56.940Z,60218.47
2023-02-26T10:41:01.206Z,60218.47
2023-02-26T10:44:22.143Z,60218.47
2023-02-26T10:47:54.363Z,60218.47
2023-02-26T10:50:58.525Z,60218.47
2023-02-26T10:54:21.777Z,60218.47
2023-02-26T10:57:29.841Z,60218.47
2023-02-26T11:00:31.820Z,60218.47
2023-02-26T11:03:39.624Z,60218.47
2023-02-26T11:06:49.626Z,60218.47
2023-02-26T11:09:52.210Z,60218.47
2023-02-26T11:12:53.860Z,60218.47
2023-02-26T11:15:58.329Z,60218.47
2023-02-26T11:19:01.138Z,60218.47
2023-02-26T11:22:05.041Z,60218.47
2023-02-26T11:25:07.154Z,60218.47
2023-02-26T11:28:22.487Z,60218.47
2023-02-26T11:31:25.370Z,60218.47
2023-02-26T11:34:27.236Z,60218.47
2023-02-26T11:37:31.660Z,60218.47
2023-02-26T11:40:41.542Z,60218.47
2023-02-26T11:43:47.135Z,60218.47
2023-02-26T11:46:55.228Z,60218.47
2023-02-26T11:50:02.521Z,60218.47
2023-02-26T11:53:07.278Z,60218.47
2023-02-26T11:56:15.018Z,60218.47
2023-02-26T11:59:24.540Z,60218.47
2023-02-26T12:02:31.441Z,60218.47
2023-02-26T12:05:32.920Z,60218.47
2023-02-26T12:08:36.389Z,60218.47
2023-02-26T12:11:47.226Z,60218.47
2023-02-26T12:15:02.765Z,60218.47
2023-02-26T12:18:29.021Z,60218.47
2023-02-26T12:22:07.734Z,60218.47
2023-02-26T12:25:35.368Z,60218.47
2023-02-26T12:28:39.609Z,60218.47
2023-02-26T12:31:41.133Z,60218.47
2023-02-26T12:35:22.168Z,60218.47
2023-02-26T12:38:38.817Z,60218.47
2023-02-26T12:41:53.718Z,60218.47
2023-02-26T12:44:55.074Z,60218.47
2023-02-26T12:47:59.467Z,60218.47
2023-02-26T12:51:11.967Z,60218.47
2023-02-26T12:54:22.576Z,60218.47
2023-02-26T12:57:42.746Z,60218.47
2023-02-26T13:00:58.124Z,60218.47
2023-02-26T13:04:17.535Z,60218.47
2023-02-26T13:07:36.916Z,60218.47
2023-02-26T13:11:09.101Z,60218.47
2023-02-26T13:14:30.742Z,60218.47
2023-02-26T13:17:52.355Z,60218.47
2023-02-26T13:21:03.296Z,60218.47
2023-02-26T13:24:13.946Z,60218.47
2023-02-26T13:27:17.147Z,60218.47
2023-02-26T13:30:26.802Z,60218.47
2023-02-26T13:33:31.605Z,60218.47
2023-02-26T13:36:35.295Z,60218.47
2023-02-26T13:39:47.872Z,60218.47
2023-02-26T13:43:00.456Z,60218.47
2023-02-26T13:46:31.172Z,60218.47
2023-02-26T13:50:13.892Z,60218.47
2023-02-26T13:53:24.390Z,60218.47
2023-02-26T13:56:31.937Z,60218.47
2023-02-26T13:59:41.408Z,60218.47
2023-02-26T14:02:50.439Z,60218.47
2023-02-26T14:06:21.719Z,60218.47
2023-02-26T14:09:23.107Z,60218.47
2023-02-26T14:12:36.823Z,60218.47
2023-02-26T14:15:48.183Z,60218.47
2023-02-26T14:18:52.564Z,60218.47
2023-02-26T14:22:09.222Z,60218.47
2023-02-26T14:25:19.734Z,60218.47
2023-02-26T14:28:24.025Z,60218.47
2023-02-26T14:31:26.861Z,60218.47
2023-02-26T14:34:33.076Z,60218.47
2023-02-26T14:37:35.416Z,60218.47
2023-02-26T14:40:45.628Z,60218.47
2023-02-26T14:44:01.764Z,60218.47
2023-02-26T14:47:08.311Z,60218.47
2023-02-26T14:50:15.922Z,60218.47
2023-02-26T14:53:25.750Z,60218.47
2023-02-26T14:56:41.704Z,60218.47
2023-02-26T15:00:00.905Z,60218.47
2023-02-26T15:03:46.530Z,60218.47
2023-02-26T15:07:06.280Z,60218.47
2023-02-26T15:10:39.787Z,60218.47
2023-02-26T15:14:07.030Z,60218.47
2023-02-26T15:17:29.660Z,60218.47
2023-02-26T15:20:42.896Z,60218.47
2023-02-26T15:23:49.131Z,60218.47
2023-02-26T15:26:57.022Z,60218.47
2023-02-26T15:29:59.561Z,60218.47
2023-02-26T15:33:05.514Z,60218.47
2023-02-26T15:36:16.125Z,60218.47
2023-02-26T15:39:19.052Z,60218.47
2023-02-26T15:42:23.667Z,60218.47
2023-02-26T15:45:41.162Z,60218.47
2023-02-26T15:48:43.602Z,60218.47
2023-02-26T15:51:45.989Z,60218.47
2023-02-26T15:55:00.017Z,60218.47
2023-02-26T15:58:03.078Z,60218.47
2023-02-26T16:01:05.913Z,60218.47
2023-02-26T16:04:14.121Z,60218.47
2023-02-26T16:07:15.596Z,60218.47
2023-02-26T16:10:28.446Z,60218.47
2023-02-26T16:13:33.534Z,60218.47
2023-02-26T16:16:44.839Z,60218.47
2023-02-26T16:19:48.675Z,60218.47
2023-02-26T16:22:55.283Z,60218.47
2023-02-26T16:26:01.395Z,60218.47
2023-02-26T16:29:09.903Z,60218.47
2023-02-26T16:32:12.840Z,60218.47
2023-02-26T16:35:21.492Z,60218.47
2023-02-26T16:38:29.998Z,60218.47
2023-02-26T16:41:34.419Z,60218.47
2023-02-26T16:45:01.479Z,60218.47
2023-02-26T16:48:16.780Z,60218.47
2023-02-26T16:51:22.440Z,60218.47
2023-02-26T16:54:36.628Z,60218.47
2023-02-26T16:57:42.205Z,60218.47
2023-02-26T17:00:45.737Z,60218.47
2023-02-26T17:03:52.215Z,60218.47
2023-02-26T17:06:53.666Z,60218.47
2023-02-26T17:10:16.662Z,60218.47
2023-02-26T17:13:26.762Z,60218.47
2023-02-26T17:16:28.389Z,60218.47
2023-02-26T17:19:29.807Z,60218.47
2023-02-26T17:22:31.261Z,60218.47
2023-02-26T17:25:41.888Z,60218.47
2023-02-26T17:28:43.345Z,60218.47
2023-02-26T17:31:44.973Z,60218.47
2023-02-26T17:34:48.478Z,60218.47
2023-02-26T17:37:49.851Z,60218.47
2023-02-26T17:40:51.284Z,60218.47
2023-02-26T17:43:52.710Z,60218.47
2023-02-26T17:46:54.144Z,60218.47
2023-02-26T17:49:55.695Z,60218.47
2023-02-26T17:52:57.857Z,60218.47
2023-02-26T17:55:59.754Z,60218.47
2023-02-26T17:59:01.821Z,60218.47
2023-02-26T18:02:16.054Z,60218.47
2023-02-26T18:05:18.802Z,60218.47
2023-02-26T18:08:32.200Z,60218.47
2023-02-26T18:11:33.914Z,60218.47
2023-02-26T18:14:35.299Z,60218.47
2023-02-26T18:17:37.295Z,60218.47
2023-02-26T18:20:39.375Z,60218.47
2023-02-26T18:23:40.992Z,60218.47
2023-02-26T18:26:42.476Z,60218.47
2023-02-26T18:29:43.939Z,60218.47
2023-02-26T18:32:45.385Z,60218.47
2023-02-26T18:35:50.198Z,60218.47
2023-02-26T18:38:51.652Z,60218.47
2023-02-26T18:41:53.319Z,60218.47
2023-02-26T18:44:55.074Z,60218.47
2023-02-26T18:47:56.572Z,60218.47
2023-02-26T18:50:58.278Z,60218.47
2023-02-26T18:53:59.694Z,60218.47
2023-02-26T18:57:01.101Z,60218.47
2023-02-26T19:00:02.652Z,60218.47
2023-02-26T19:03:04.764Z,60218.47
2023-02-26T19:06:07.153Z,60218.47
2023-02-26T19:09:08.615Z,60218.47
2023-02-26T19:12:10.993Z,60218.47
2023-02-26T19:15:13.531Z,60218.47
2023-02-26T19:18:15.137Z,60218.47
2023-02-26T19:21:16.797Z,60218.47
2023-02-26T19:24:18.238Z,60218.47
2023-02-26T19:27:19.697Z,60218.47
2023-02-26T19:30:22.504Z,60218.47
2023-02-26T19:33:24.306Z,60218.47
2023-02-26T19:36:25.900Z,60218.47
2023-02-26T19:39:28.112Z,60218.47
2023-02-26T19:42:29.522Z,60218.47
2023-02-26T19:45:31.405Z,60218.47
2023-02-26T19:48:32.837Z,60218.47
2023-02-26T19:51:34.238Z,60218.47
2023-02-26T19:54:38.575Z,60218.47
2023-02-26T19:57:40.347Z,60218.47
2023-02-26T20:00:42.559Z,60218.47
2023-02-26T20:03:44.075Z,60218.47
2023-02-26T20:06:45.886Z,60218.47
2023-02-26T20:09:49.415Z,60218.47
2023-02-26T20:12:51.282Z,60218.47
2023-02-26T20:15:53.675Z,60218.47
2023-02-26T20:18:55.205Z,60218.47
2023-02-26T20:21:56.633Z,60218.47
2023-02-26T20:25:00.651Z,60218.47
2023-02-26T20:28:02.061Z,60218.47
2023-02-26T20:31:04.902Z,60218.47
2023-02-26T20:34:06.386Z,60218.47
2023-02-26T20:37:07.941Z,60218.47
2023-02-26T20:40:10.121Z,60218.47
2023-02-26T20:43:11.576Z,60218.47
2023-02-26T20:48:04.811Z,102863.41
2023-02-26T20:51:06.503Z,102866.50
2023-02-26T20:54:12.132Z,102869.72
2023-02-26T20:57:13.502Z,102870.41
2023-02-26T21:00:15.521Z,102872.94
2023-02-26T21:03:16.950Z,102873.75
2023-02-26T21:06:18.420Z,102878.72
2023-02-26T21:09:19.879Z,102876.91
2023-02-26T21:12:21.445Z,102875.19
2023-02-26T21:15:22.839Z,102881.94
2023-02-26T21:18:24.302Z,102885.31
2023-02-26T21:21:26.505Z,102885.28
2023-02-26T21:24:28.635Z,102883.72
2023-02-26T21:27:30.019Z,102888.88
2023-02-26T21:30:31.549Z,102892.22
2023-02-26T21:33:32.981Z,102881.09
2023-02-26T21:36:34.416Z,102894.63
2023-02-26T21:39:36.986Z,102890.25
2023-02-26T21:42:38.437Z,102895.22
2023-02-26T21:45:40.112Z,102899.38
2023-02-26T21:48:41.778Z,102893.66
2023-02-26T21:51:43.214Z,102902.06
2023-02-26T21:54:44.617Z,102900.19
2023-02-26T21:57:46.046Z,102906.94
2023-02-26T22:00:47.503Z,102900.81
2023-02-26T22:03:48.944Z,102910.00
2023-02-26T22:06:50.337Z,102909.19
2023-02-26T22:09:51.752Z,102915.94
2023-02-26T22:12:53.280Z,102911.69
2023-02-26T22:15:54.688Z,102907.44
2023-02-26T22:18:56.217Z,102905.81
2023-02-26T22:21:57.663Z,102909.91
2023-02-26T22:24:59.060Z,102905.50
2023-02-26T22:28:00.463Z,102915.59
2023-02-26T22:31:02.146Z,102919.53
2023-02-26T22:34:03.668Z,102911.81
2023-02-26T22:37:05.100Z,102911.84
2023-02-26T22:40:07.207Z,102914.28
2023-02-26T22:43:10.349Z,102921.66
2023-02-26T22:46:11.911Z,102920.59
2023-02-26T22:49:13.548Z,102928.84
2023-02-26T22:52:15.362Z,102920.31
2023-02-26T22:55:17.126Z,102924.44
2023-02-26T22:58:18.547Z,102927.69
2023-02-26T23:01:20.519Z,102934.47
2023-02-26T23:04:22.082Z,102932.75
2023-02-26T23:07:23.543Z,102929.47
2023-02-26T23:10:25.007Z,102935.31
2023-02-26T23:13:28.295Z,102928.47
2023-02-26T23:16:29.661Z,102936.44
2023-02-26T23:19:31.063Z,102937.31
2023-02-26T23:22:32.540Z,102943.94
2023-02-26T23:25:34.011Z,102937.97
2023-02-26T23:28:36.708Z,102942.25
2023-02-26T23:31:38.894Z,102942.88
2023-02-26T23:34:40.800Z,102948.00
2023-02-26T23:37:42.485Z,102951.31
2023-02-26T23:40:44.073Z,102952.31
2023-02-26T23:43:45.443Z,102949.66
2023-02-26T23:46:46.850Z,102949.50
2023-02-26T23:49:48.606Z,102951.09
2023-02-26T23:52:50.343Z,102949.34
2023-02-26T23:55:52.223Z,102951.97
2023-02-26T23:58:53.588Z,102964.56
